sensor_id;sensor_type;location;lat;lon;timestamp;pressure;altitude;pressure_sealevel;temperature;humidity
74921;BME280;63483;47.384;8.860;2023-01-25T00:02:12;95838.13;;;-1.02;50.24
74921;BME280;63483;47.384;8.860;2023-01-25T00:04:37;95839.63;;;-0.98;50.67
74921;BME280;63483;47.384;8.860;2023-01-25T00:07:03;95836.31;;;-1.00;50.19
74921;BME280;63483;47.384;8.860;2023-01-25T00:09:28;95847.06;;;-1.27;50.85
74921;BME280;63483;47.384;8.860;2023-01-25T00:11:54;95835.25;;;-1.13;50.85
74921;BME280;63483;47.384;8.860;2023-01-25T00:14:22;95840.81;;;-1.05;50.53
74921;BME280;63483;47.384;8.860;2023-01-25T00:16:47;95834.19;;;-1.09;50.11
74921;BME280;63483;47.384;8.860;2023-01-25T00:19:12;95840.09;;;-1.07;50.57
74921;BME280;63483;47.384;8.860;2023-01-25T00:21:38;95850.72;;;-1.48;51.64
74921;BME280;63483;47.384;8.860;2023-01-25T00:24:05;95838.75;;;-1.32;51.15
74921;BME280;63483;47.384;8.860;2023-01-25T00:26:34;95843.38;;;-1.21;51.18
74921;BME280;63483;47.384;8.860;2023-01-25T00:29:00;95824.53;;;-1.39;51.45
74921;BME280;63483;47.384;8.860;2023-01-25T00:36:49;95814.16;;;-1.20;51.32
74921;BME280;63483;47.384;8.860;2023-01-25T00:39:15;95806.09;;;-1.30;51.49
74921;BME280;63483;47.384;8.860;2023-01-25T00:41:42;95802.78;;;-1.49;51.79
74921;BME280;63483;47.384;8.860;2023-01-25T00:44:07;95793.28;;;-1.65;51.96
74921;BME280;63483;47.384;8.860;2023-01-25T00:46:33;95795.06;;;-1.32;50.94
74921;BME280;63483;47.384;8.860;2023-01-25T00:48:58;95804.59;;;-1.86;52.44
74921;BME280;63483;47.384;8.860;2023-01-25T00:51:24;95817.28;;;-1.48;51.25
74921;BME280;63483;47.384;8.860;2023-01-25T00:53:49;95802.66;;;-1.64;51.57
74921;BME280;63483;47.384;8.860;2023-01-25T00:56:15;95798.69;;;-2.06;49.44
74921;BME280;63483;47.384;8.860;2023-01-25T00:58:40;95807.38;;;-2.26;47.57
74921;BME280;63483;47.384;8.860;2023-01-25T01:01:06;95813.91;;;-2.95;47.42
74921;BME280;63483;47.384;8.860;2023-01-25T01:03:31;95809.34;;;-2.88;51.64
74921;BME280;63483;47.384;8.860;2023-01-25T01:06:08;95803.50;;;-2.73;49.34
74921;BME280;63483;47.384;8.860;2023-01-25T01:08:38;95810.78;;;-2.64;53.10
74921;BME280;63483;47.384;8.860;2023-01-25T01:11:08;95819.31;;;-3.01;48.54
74921;BME280;63483;47.384;8.860;2023-01-25T01:13:33;95807.25;;;-2.80;52.55
74921;BME280;63483;47.384;8.860;2023-01-25T01:16:00;95816.88;;;-2.47;52.89
74921;BME280;63483;47.384;8.860;2023-01-25T01:18:27;95815.03;;;-2.63;47.40
74921;BME280;63483;47.384;8.860;2023-01-25T01:20:53;95834.56;;;-2.79;46.68
74921;BME280;63483;47.384;8.860;2023-01-25T01:23:18;95826.06;;;-3.19;44.86
74921;BME280;63483;47.384;8.860;2023-01-25T01:25:44;95837.63;;;-3.50;45.68
74921;BME280;63483;47.384;8.860;2023-01-25T01:28:10;95825.53;;;-3.07;52.47
74921;BME280;63483;47.384;8.860;2023-01-25T01:30:36;95819.59;;;-3.28;59.84
74921;BME280;63483;47.384;8.860;2023-01-25T01:33:02;95826.94;;;-3.82;51.03
74921;BME280;63483;47.384;8.860;2023-01-25T01:35:28;95825.53;;;-3.89;52.03
74921;BME280;63483;47.384;8.860;2023-01-25T01:37:53;95812.94;;;-4.37;50.85
74921;BME280;63483;47.384;8.860;2023-01-25T01:40:18;95818.59;;;-4.52;51.89
74921;BME280;63483;47.384;8.860;2023-01-25T01:43:04;95816.06;;;-4.52;52.45
74921;BME280;63483;47.384;8.860;2023-01-25T01:48:37;95807.31;;;-4.68;53.19
74921;BME280;63483;47.384;8.860;2023-01-25T01:53:31;95798.69;;;-4.44;51.60
74921;BME280;63483;47.384;8.860;2023-01-25T01:55:59;95790.59;;;-4.77;50.46
74921;BME280;63483;47.384;8.860;2023-01-25T01:58:26;95794.72;;;-4.97;51.16
74921;BME280;63483;47.384;8.860;2023-01-25T02:00:53;95806.97;;;-4.83;52.96
74921;BME280;63483;47.384;8.860;2023-01-25T02:03:18;95794.97;;;-4.35;51.89
74921;BME280;63483;47.384;8.860;2023-01-25T02:05:59;95793.34;;;-4.15;51.42
74921;BME280;63483;47.384;8.860;2023-01-25T02:08:29;95798.78;;;-4.03;50.33
74921;BME280;63483;47.384;8.860;2023-01-25T02:10:56;95803.88;;;-4.03;54.01
74921;BME280;63483;47.384;8.860;2023-01-25T02:13:22;95808.53;;;-3.90;51.91
74921;BME280;63483;47.384;8.860;2023-01-25T02:15:49;95807.94;;;-3.76;50.23
74921;BME280;63483;47.384;8.860;2023-01-25T02:18:16;95802.00;;;-3.56;52.25
74921;BME280;63483;47.384;8.860;2023-01-25T02:20:45;95810.81;;;-3.22;54.75
74921;BME280;63483;47.384;8.860;2023-01-25T02:26:15;95801.38;;;-2.82;54.43
74921;BME280;63483;47.384;8.860;2023-01-25T02:28:46;95799.78;;;-2.66;54.52
74921;BME280;63483;47.384;8.860;2023-01-25T02:31:13;95801.44;;;-2.65;54.08
74921;BME280;63483;47.384;8.860;2023-01-25T02:33:39;95794.72;;;-2.48;54.43
74921;BME280;63483;47.384;8.860;2023-01-25T02:38:34;95789.69;;;-2.15;53.49
74921;BME280;63483;47.384;8.860;2023-01-25T02:41:06;95792.03;;;-2.10;52.86
74921;BME280;63483;47.384;8.860;2023-01-25T02:43:33;95788.22;;;-2.19;53.16
74921;BME280;63483;47.384;8.860;2023-01-25T02:46:27;95782.97;;;-2.35;53.40
74921;BME280;63483;47.384;8.860;2023-01-25T02:48:54;95781.78;;;-2.10;52.98
74921;BME280;63483;47.384;8.860;2023-01-25T02:51:22;95777.84;;;-2.00;52.73
74921;BME280;63483;47.384;8.860;2023-01-25T02:53:47;95774.72;;;-1.87;52.57
74921;BME280;63483;47.384;8.860;2023-01-25T02:56:12;95784.53;;;-1.78;51.84
74921;BME280;63483;47.384;8.860;2023-01-25T02:58:38;95784.13;;;-1.88;52.02
74921;BME280;63483;47.384;8.860;2023-01-25T03:01:03;95783.16;;;-1.68;51.79
74921;BME280;63483;47.384;8.860;2023-01-25T03:03:28;95777.13;;;-1.84;51.85
74921;BME280;63483;47.384;8.860;2023-01-25T03:05:54;95769.66;;;-1.89;51.43
74921;BME280;63483;47.384;8.860;2023-01-25T03:08:19;95771.38;;;-1.72;51.79
74921;BME280;63483;47.384;8.860;2023-01-25T03:10:44;95760.03;;;-1.68;51.62
74921;BME280;63483;47.384;8.860;2023-01-25T03:13:10;95761.97;;;-1.56;51.36
74921;BME280;63483;47.384;8.860;2023-01-25T03:15:35;95765.47;;;-1.57;51.32
74921;BME280;63483;47.384;8.860;2023-01-25T03:18:00;95759.19;;;-1.51;50.73
74921;BME280;63483;47.384;8.860;2023-01-25T03:20:26;95760.28;;;-1.39;51.06
74921;BME280;63483;47.384;8.860;2023-01-25T03:22:51;95756.50;;;-1.32;50.70
74921;BME280;63483;47.384;8.860;2023-01-25T03:25:17;95752.88;;;-1.28;50.26
74921;BME280;63483;47.384;8.860;2023-01-25T03:27:42;95749.41;;;-1.27;50.18
74921;BME280;63483;47.384;8.860;2023-01-25T03:30:08;95744.09;;;-1.24;50.55
74921;BME280;63483;47.384;8.860;2023-01-25T03:32:33;95743.84;;;-1.19;50.54
74921;BME280;63483;47.384;8.860;2023-01-25T03:34:59;95734.28;;;-1.17;49.97
74921;BME280;63483;47.384;8.860;2023-01-25T03:37:24;95729.25;;;-1.19;49.83
74921;BME280;63483;47.384;8.860;2023-01-25T03:39:54;95725.28;;;-1.24;50.39
74921;BME280;63483;47.384;8.860;2023-01-25T03:42:20;95729.88;;;-1.31;50.20
74921;BME280;63483;47.384;8.860;2023-01-25T03:44:45;95725.41;;;-1.27;50.73
74921;BME280;63483;47.384;8.860;2023-01-25T03:47:11;95726.25;;;-1.27;50.68
74921;BME280;63483;47.384;8.860;2023-01-25T03:49:36;95729.72;;;-1.28;50.53
74921;BME280;63483;47.384;8.860;2023-01-25T03:52:01;95734.59;;;-1.39;50.66
74921;BME280;63483;47.384;8.860;2023-01-25T03:54:27;95728.81;;;-1.27;50.15
74921;BME280;63483;47.384;8.860;2023-01-25T03:56:52;95727.59;;;-1.20;50.18
74921;BME280;63483;47.384;8.860;2023-01-25T03:59:17;95719.88;;;-1.20;50.71
74921;BME280;63483;47.384;8.860;2023-01-25T04:01:43;95726.19;;;-1.25;50.34
74921;BME280;63483;47.384;8.860;2023-01-25T04:04:08;95724.09;;;-1.19;50.68
74921;BME280;63483;47.384;8.860;2023-01-25T04:06:33;95729.56;;;-1.25;50.62
74921;BME280;63483;47.384;8.860;2023-01-25T04:08:59;95724.19;;;-1.36;50.60
74921;BME280;63483;47.384;8.860;2023-01-25T04:11:24;95721.72;;;-1.39;51.47
74921;BME280;63483;47.384;8.860;2023-01-25T04:13:49;95723.09;;;-1.32;51.35
74921;BME280;63483;47.384;8.860;2023-01-25T04:16:15;95727.91;;;-1.26;50.82
74921;BME280;63483;47.384;8.860;2023-01-25T04:18:40;95725.75;;;-1.17;50.67
74921;BME280;63483;47.384;8.860;2023-01-25T04:21:06;95721.16;;;-1.44;44.95
74921;BME280;63483;47.384;8.860;2023-01-25T04:23:31;95723.34;;;-2.05;46.25
74921;BME280;63483;47.384;8.860;2023-01-25T04:26:01;95717.81;;;-2.50;42.81
74921;BME280;63483;47.384;8.860;2023-01-25T04:28:29;95713.66;;;-2.52;51.81
74921;BME280;63483;47.384;8.860;2023-01-25T04:30:55;95716.16;;;-2.33;57.23
74921;BME280;63483;47.384;8.860;2023-01-25T04:33:21;95713.59;;;-3.25;51.44
74921;BME280;63483;47.384;8.860;2023-01-25T04:35:47;95720.31;;;-3.62;51.06
74921;BME280;63483;47.384;8.860;2023-01-25T04:38:12;95718.81;;;-2.90;53.23
74921;BME280;63483;47.384;8.860;2023-01-25T04:40:37;95721.09;;;-3.81;50.02
74921;BME280;63483;47.384;8.860;2023-01-25T04:43:03;95719.44;;;-3.82;50.68
74921;BME280;63483;47.384;8.860;2023-01-25T04:45:31;95709.00;;;-3.38;52.60
74921;BME280;63483;47.384;8.860;2023-01-25T04:47:59;95716.56;;;-3.55;52.25
74921;BME280;63483;47.384;8.860;2023-01-25T04:50:24;95712.00;;;-3.68;50.81
74921;BME280;63483;47.384;8.860;2023-01-25T04:52:50;95710.72;;;-3.78;56.34
74921;BME280;63483;47.384;8.860;2023-01-25T04:55:16;95709.50;;;-3.69;51.14
74921;BME280;63483;47.384;8.860;2023-01-25T04:57:41;95709.50;;;-3.29;53.37
74921;BME280;63483;47.384;8.860;2023-01-25T05:00:08;95714.28;;;-3.03;54.74
74921;BME280;63483;47.384;8.860;2023-01-25T05:02:34;95699.31;;;-3.12;53.95
74921;BME280;63483;47.384;8.860;2023-01-25T05:04:59;95704.03;;;-3.22;48.84
74921;BME280;63483;47.384;8.860;2023-01-25T05:07:25;95695.97;;;-3.14;52.75
74921;BME280;63483;47.384;8.860;2023-01-25T05:09:50;95693.22;;;-3.28;51.11
74921;BME280;63483;47.384;8.860;2023-01-25T05:12:15;95691.78;;;-3.34;48.37
74921;BME280;63483;47.384;8.860;2023-01-25T05:14:40;95679.63;;;-3.11;51.31
74921;BME280;63483;47.384;8.860;2023-01-25T05:17:07;95695.50;;;-3.22;48.43
74921;BME280;63483;47.384;8.860;2023-01-25T05:19:32;95701.09;;;-3.52;45.91
74921;BME280;63483;47.384;8.860;2023-01-25T05:21:59;95704.84;;;-3.21;51.03
74921;BME280;63483;47.384;8.860;2023-01-25T05:24:29;95693.91;;;-3.06;50.47
74921;BME280;63483;47.384;8.860;2023-01-25T05:26:55;95700.97;;;-3.11;52.54
74921;BME280;63483;47.384;8.860;2023-01-25T05:29:37;95706.78;;;-2.88;52.85
74921;BME280;63483;47.384;8.860;2023-01-25T05:32:06;95698.22;;;-3.25;58.47
74921;BME280;63483;47.384;8.860;2023-01-25T05:34:33;95694.19;;;-3.12;53.32
74921;BME280;63483;47.384;8.860;2023-01-25T05:36:58;95703.81;;;-3.17;50.77
74921;BME280;63483;47.384;8.860;2023-01-25T05:39:24;95683.50;;;-3.03;53.21
74921;BME280;63483;47.384;8.860;2023-01-25T05:41:49;95689.03;;;-2.93;53.69
74921;BME280;63483;47.384;8.860;2023-01-25T05:44:15;95687.38;;;-2.94;54.06
74921;BME280;63483;47.384;8.860;2023-01-25T05:46:40;95694.59;;;-3.02;53.67
74921;BME280;63483;47.384;8.860;2023-01-25T05:49:06;95691.81;;;-2.98;52.37
74921;BME280;63483;47.384;8.860;2023-01-25T05:51:31;95690.16;;;-3.37;52.78
74921;BME280;63483;47.384;8.860;2023-01-25T05:53:57;95692.19;;;-3.83;49.04
74921;BME280;63483;47.384;8.860;2023-01-25T05:56:23;95700.34;;;-3.75;49.98
74921;BME280;63483;47.384;8.860;2023-01-25T05:58:56;95689.59;;;-3.62;51.27
74921;BME280;63483;47.384;8.860;2023-01-25T06:01:22;95685.06;;;-3.76;52.91
74921;BME280;63483;47.384;8.860;2023-01-25T06:03:48;95682.97;;;-3.28;54.06
74921;BME280;63483;47.384;8.860;2023-01-25T06:06:14;95685.38;;;-3.06;53.99
74921;BME280;63483;47.384;8.860;2023-01-25T06:08:39;95690.38;;;-2.67;54.02
74921;BME280;63483;47.384;8.860;2023-01-25T06:11:08;95692.69;;;-2.43;53.44
74921;BME280;63483;47.384;8.860;2023-01-25T06:13:35;95685.16;;;-2.29;52.86
74921;BME280;63483;47.384;8.860;2023-01-25T06:16:00;95694.03;;;-2.36;53.44
74921;BME280;63483;47.384;8.860;2023-01-25T06:18:29;95689.38;;;-2.45;54.00
74921;BME280;63483;47.384;8.860;2023-01-25T06:20:58;95693.44;;;-2.58;53.94
74921;BME280;63483;47.384;8.860;2023-01-25T06:23:24;95691.63;;;-2.21;53.03
74921;BME280;63483;47.384;8.860;2023-01-25T06:25:50;95692.38;;;-2.37;53.16
74921;BME280;63483;47.384;8.860;2023-01-25T06:28:15;95693.31;;;-2.20;52.75
74921;BME280;63483;47.384;8.860;2023-01-25T06:30:41;95689.06;;;-2.21;52.76
74921;BME280;63483;47.384;8.860;2023-01-25T06:33:07;95687.31;;;-2.56;53.84
74921;BME280;63483;47.384;8.860;2023-01-25T06:35:33;95691.63;;;-2.21;53.06
74921;BME280;63483;47.384;8.860;2023-01-25T06:37:59;95686.19;;;-2.15;52.94
74921;BME280;63483;47.384;8.860;2023-01-25T06:40:25;95688.59;;;-1.95;52.21
74921;BME280;63483;47.384;8.860;2023-01-25T06:42:51;95684.28;;;-1.94;52.21
74921;BME280;63483;47.384;8.860;2023-01-25T06:45:20;95683.84;;;-1.85;52.05
74921;BME280;63483;47.384;8.860;2023-01-25T06:47:47;95686.47;;;-1.86;52.13
74921;BME280;63483;47.384;8.860;2023-01-25T06:50:13;95675.66;;;-1.76;51.50
74921;BME280;63483;47.384;8.860;2023-01-25T06:52:39;95679.75;;;-1.72;51.93
74921;BME280;63483;47.384;8.860;2023-01-25T06:55:06;95681.91;;;-1.64;52.00
74921;BME280;63483;47.384;8.860;2023-01-25T06:57:32;95676.31;;;-1.72;51.94
74921;BME280;63483;47.384;8.860;2023-01-25T06:59:58;95678.91;;;-1.72;52.07
74921;BME280;63483;47.384;8.860;2023-01-25T07:02:24;95688.44;;;-1.92;49.99
74921;BME280;63483;47.384;8.860;2023-01-25T07:04:49;95670.56;;;-2.28;48.14
74921;BME280;63483;47.384;8.860;2023-01-25T07:07:14;95669.97;;;-2.87;46.61
74921;BME280;63483;47.384;8.860;2023-01-25T07:09:40;95676.56;;;-3.01;47.52
74921;BME280;63483;47.384;8.860;2023-01-25T07:12:05;95675.88;;;-2.85;53.51
74921;BME280;63483;47.384;8.860;2023-01-25T07:14:31;95669.50;;;-2.96;46.74
74921;BME280;63483;47.384;8.860;2023-01-25T07:16:57;95669.50;;;-2.96;48.30
74921;BME280;63483;47.384;8.860;2023-01-25T07:19:22;95676.19;;;-3.10;48.68
74921;BME280;63483;47.384;8.860;2023-01-25T07:21:48;95673.13;;;-3.00;46.41
74921;BME280;63483;47.384;8.860;2023-01-25T07:24:15;95665.19;;;-2.76;51.86
74921;BME280;63483;47.384;8.860;2023-01-25T07:26:41;95668.25;;;-2.87;52.68
74921;BME280;63483;47.384;8.860;2023-01-25T07:29:11;95670.41;;;-2.60;47.98
74921;BME280;63483;47.384;8.860;2023-01-25T07:31:37;95665.63;;;-2.85;53.19
74921;BME280;63483;47.384;8.860;2023-01-25T07:34:02;95663.56;;;-2.42;53.82
74921;BME280;63483;47.384;8.860;2023-01-25T07:36:28;95662.13;;;-2.84;55.76
74921;BME280;63483;47.384;8.860;2023-01-25T07:38:55;95665.03;;;-2.73;53.04
74921;BME280;63483;47.384;8.860;2023-01-25T07:41:22;95668.81;;;-2.63;53.98
74921;BME280;63483;47.384;8.860;2023-01-25T07:43:48;95667.00;;;-2.78;55.41
74921;BME280;63483;47.384;8.860;2023-01-25T07:46:14;95663.53;;;-2.96;55.15
74921;BME280;63483;47.384;8.860;2023-01-25T07:48:48;95656.88;;;-3.37;51.57
74921;BME280;63483;47.384;8.860;2023-01-25T07:51:15;95661.41;;;-3.24;50.54
74921;BME280;63483;47.384;8.860;2023-01-25T07:53:51;95661.34;;;-3.80;52.06
74921;BME280;63483;47.384;8.860;2023-01-25T07:56:17;95663.56;;;-3.53;56.57
74921;BME280;63483;47.384;8.860;2023-01-25T07:58:43;95659.41;;;-3.56;55.43
74921;BME280;63483;47.384;8.860;2023-01-25T08:01:12;95663.13;;;-3.63;50.37
74921;BME280;63483;47.384;8.860;2023-01-25T08:03:38;95656.94;;;-3.38;57.59
74921;BME280;63483;47.384;8.860;2023-01-25T08:06:04;95666.81;;;-3.31;54.42
74921;BME280;63483;47.384;8.860;2023-01-25T08:08:31;95660.81;;;-3.29;52.54
74921;BME280;63483;47.384;8.860;2023-01-25T08:11:20;95668.13;;;-3.03;54.78
74921;BME280;63483;47.384;8.860;2023-01-25T08:13:44;95657.91;;;-3.22;55.80
74921;BME280;63483;47.384;8.860;2023-01-25T08:16:11;95658.69;;;-3.02;55.41
74921;BME280;63483;47.384;8.860;2023-01-25T08:18:37;95665.66;;;-3.04;50.45
74921;BME280;63483;47.384;8.860;2023-01-25T08:21:03;95658.63;;;-3.01;54.32
74921;BME280;63483;47.384;8.860;2023-01-25T08:23:28;95662.19;;;-3.03;55.60
74921;BME280;63483;47.384;8.860;2023-01-25T08:25:53;95667.09;;;-2.81;54.31
74921;BME280;63483;47.384;8.860;2023-01-25T08:28:20;95661.13;;;-3.18;56.11
74921;BME280;63483;47.384;8.860;2023-01-25T08:30:46;95663.34;;;-2.74;53.39
74921;BME280;63483;47.384;8.860;2023-01-25T08:33:11;95659.16;;;-2.57;56.10
74921;BME280;63483;47.384;8.860;2023-01-25T08:35:37;95653.91;;;-2.91;55.02
74921;BME280;63483;47.384;8.860;2023-01-25T08:38:02;95647.66;;;-3.41;56.77
74921;BME280;63483;47.384;8.860;2023-01-25T08:40:28;95650.88;;;-3.18;54.32
74921;BME280;63483;47.384;8.860;2023-01-25T08:42:53;95653.72;;;-3.24;55.88
74921;BME280;63483;47.384;8.860;2023-01-25T08:45:19;95649.09;;;-3.16;55.42
74921;BME280;63483;47.384;8.860;2023-01-25T08:47:44;95647.84;;;-3.26;55.47
74921;BME280;63483;47.384;8.860;2023-01-25T08:50:10;95640.16;;;-3.26;56.36
74921;BME280;63483;47.384;8.860;2023-01-25T08:52:35;95636.88;;;-3.47;56.90
74921;BME280;63483;47.384;8.860;2023-01-25T08:55:01;95640.22;;;-3.09;55.77
74921;BME280;63483;47.384;8.860;2023-01-25T08:57:26;95627.56;;;-3.12;54.21
74921;BME280;63483;47.384;8.860;2023-01-25T08:59:51;95633.06;;;-3.02;55.82
74921;BME280;63483;47.384;8.860;2023-01-25T09:02:16;95629.53;;;-3.00;54.60
74921;BME280;63483;47.384;8.860;2023-01-25T09:04:43;95624.75;;;-2.88;55.10
74921;BME280;63483;47.384;8.860;2023-01-25T09:07:09;95629.13;;;-3.09;54.20
74921;BME280;63483;47.384;8.860;2023-01-25T09:09:34;95622.31;;;-2.91;55.11
74921;BME280;63483;47.384;8.860;2023-01-25T09:11:59;95611.28;;;-3.30;55.73
74921;BME280;63483;47.384;8.860;2023-01-25T09:14:25;95604.34;;;-3.09;52.85
74921;BME280;63483;47.384;8.860;2023-01-25T09:16:50;95608.56;;;-3.08;48.72
74921;BME280;63483;47.384;8.860;2023-01-25T09:19:15;95604.88;;;-3.02;50.35
74921;BME280;63483;47.384;8.860;2023-01-25T09:21:40;95611.28;;;-2.93;50.08
74921;BME280;63483;47.384;8.860;2023-01-25T09:24:06;95610.28;;;-2.72;54.67
74921;BME280;63483;47.384;8.860;2023-01-25T09:26:34;95603.88;;;-2.63;54.20
74921;BME280;63483;47.384;8.860;2023-01-25T09:29:01;95603.47;;;-2.73;53.18
74921;BME280;63483;47.384;8.860;2023-01-25T09:31:26;95609.34;;;-2.71;54.08
74921;BME280;63483;47.384;8.860;2023-01-25T09:33:51;95602.81;;;-2.76;52.61
74921;BME280;63483;47.384;8.860;2023-01-25T09:36:17;95607.72;;;-2.54;54.13
74921;BME280;63483;47.384;8.860;2023-01-25T09:38:43;95613.38;;;-2.48;54.93
74921;BME280;63483;47.384;8.860;2023-01-25T09:41:33;95602.16;;;-2.99;51.92
74921;BME280;63483;47.384;8.860;2023-01-25T09:44:27;95598.75;;;-3.55;51.76
74921;BME280;63483;47.384;8.860;2023-01-25T09:47:08;95606.88;;;-3.64;55.53
74921;BME280;63483;47.384;8.860;2023-01-25T09:54:47;95590.84;;;-3.32;51.33
74921;BME280;63483;47.384;8.860;2023-01-25T09:59:50;95594.34;;;-3.33;51.63
74921;BME280;63483;47.384;8.860;2023-01-25T10:05:03;95583.41;;;-2.82;55.22
74921;BME280;63483;47.384;8.860;2023-01-25T10:10:39;95588.09;;;-2.55;54.45
74921;BME280;63483;47.384;8.860;2023-01-25T10:13:13;95593.22;;;-2.38;53.75
74921;BME280;63483;47.384;8.860;2023-01-25T10:15:47;95584.91;;;-2.43;53.45
74921;BME280;63483;47.384;8.860;2023-01-25T10:18:33;95582.34;;;-2.43;53.82
74921;BME280;63483;47.384;8.860;2023-01-25T10:26:32;95575.13;;;-2.52;54.24
74921;BME280;63483;47.384;8.860;2023-01-25T10:31:45;95564.97;;;-2.20;53.50
74921;BME280;63483;47.384;8.860;2023-01-25T10:34:21;95568.41;;;-2.04;53.01
74921;BME280;63483;47.384;8.860;2023-01-25T10:36:51;95563.69;;;-1.96;52.81
74921;BME280;63483;47.384;8.860;2023-01-25T10:39:18;95556.91;;;-1.97;52.89
74921;BME280;63483;47.384;8.860;2023-01-25T10:41:48;95565.59;;;-2.33;53.68
74921;BME280;63483;47.384;8.860;2023-01-25T10:44:15;95559.97;;;-2.23;53.53
74921;BME280;63483;47.384;8.860;2023-01-25T10:47:00;95569.03;;;-2.34;53.56
74921;BME280;63483;47.384;8.860;2023-01-25T10:49:43;95567.69;;;-1.90;52.25
74921;BME280;63483;47.384;8.860;2023-01-25T10:52:19;95563.53;;;-1.93;52.04
74921;BME280;63483;47.384;8.860;2023-01-25T10:54:45;95560.22;;;-1.95;52.52
74921;BME280;63483;47.384;8.860;2023-01-25T10:57:16;95557.75;;;-1.80;52.23
74921;BME280;63483;47.384;8.860;2023-01-25T10:59:48;95558.91;;;-1.86;52.27
74921;BME280;63483;47.384;8.860;2023-01-25T11:05:23;95546.88;;;-1.85;53.55
74921;BME280;63483;47.384;8.860;2023-01-25T11:07:48;95536.16;;;-2.43;47.84
74921;BME280;63483;47.384;8.860;2023-01-25T11:15:40;95538.78;;;-2.96;53.29
74921;BME280;63483;47.384;8.860;2023-01-25T11:18:12;95536.06;;;-2.75;50.74
74921;BME280;63483;47.384;8.860;2023-01-25T11:20:38;95536.97;;;-2.76;48.24
74921;BME280;63483;47.384;8.860;2023-01-25T11:23:20;95531.97;;;-2.97;54.08
74921;BME280;63483;47.384;8.860;2023-01-25T11:25:46;95533.41;;;-2.91;54.16
74921;BME280;63483;47.384;8.860;2023-01-25T11:30:44;95520.59;;;-2.73;54.13
74921;BME280;63483;47.384;8.860;2023-01-25T11:33:11;95527.09;;;-2.66;52.63
74921;BME280;63483;47.384;8.860;2023-01-25T11:38:14;95516.88;;;-3.20;54.79
74921;BME280;63483;47.384;8.860;2023-01-25T11:40:48;95515.81;;;-2.64;53.99
74921;BME280;63483;47.384;8.860;2023-01-25T11:49:22;95497.19;;;-2.67;53.20
74921;BME280;63483;47.384;8.860;2023-01-25T11:57:47;95490.50;;;-2.87;53.69
74921;BME280;63483;47.384;8.860;2023-01-25T12:16:10;95474.81;;;-2.81;54.00
74921;BME280;63483;47.384;8.860;2023-01-25T12:23:51;95455.72;;;-2.75;55.08
74921;BME280;63483;47.384;8.860;2023-01-25T12:26:28;95451.47;;;-3.10;54.81
74921;BME280;63483;47.384;8.860;2023-01-25T12:29:33;95447.69;;;-3.03;54.31
74921;BME280;63483;47.384;8.860;2023-01-25T12:32:13;95442.09;;;-2.93;46.84
74921;BME280;63483;47.384;8.860;2023-01-25T12:34:48;95429.75;;;-3.03;51.82
74921;BME280;63483;47.384;8.860;2023-01-25T12:37:27;95432.91;;;-2.98;53.41
74921;BME280;63483;47.384;8.860;2023-01-25T12:40:02;95434.00;;;-3.19;54.49
74921;BME280;63483;47.384;8.860;2023-01-25T12:42:51;95425.75;;;-2.91;55.17
74921;BME280;63483;47.384;8.860;2023-01-25T12:45:21;95425.66;;;-2.89;55.74
74921;BME280;63483;47.384;8.860;2023-01-25T12:47:56;95417.84;;;-3.04;51.98
74921;BME280;63483;47.384;8.860;2023-01-25T12:50:32;95418.38;;;-2.97;52.00
74921;BME280;63483;47.384;8.860;2023-01-25T12:53:05;95422.88;;;-3.02;52.73
74921;BME280;63483;47.384;8.860;2023-01-25T12:55:34;95416.69;;;-2.81;55.00
74921;BME280;63483;47.384;8.860;2023-01-25T12:58:06;95412.88;;;-3.24;54.84
74921;BME280;63483;47.384;8.860;2023-01-25T13:00:41;95426.00;;;-3.13;54.51
74921;BME280;63483;47.384;8.860;2023-01-25T13:08:54;95411.09;;;-3.22;52.02
74921;BME280;63483;47.384;8.860;2023-01-25T13:11:30;95411.91;;;-3.22;52.36
74921;BME280;63483;47.384;8.860;2023-01-25T13:21:58;95390.50;;;-2.87;50.44
74921;BME280;63483;47.384;8.860;2023-01-25T13:24:29;95391.66;;;-2.93;53.17
74921;BME280;63483;47.384;8.860;2023-01-25T13:34:59;95381.09;;;-2.71;50.11
74921;BME280;63483;47.384;8.860;2023-01-25T13:37:27;95378.97;;;-2.63;50.98
74921;BME280;63483;47.384;8.860;2023-01-25T13:40:03;95380.09;;;-2.35;53.61
74921;BME280;63483;47.384;8.860;2023-01-25T13:42:33;95374.13;;;-2.51;54.10
74921;BME280;63483;47.384;8.860;2023-01-25T13:45:19;95374.22;;;-2.53;53.84
74921;BME280;63483;47.384;8.860;2023-01-25T13:48:00;95377.13;;;-2.92;56.38
74921;BME280;63483;47.384;8.860;2023-01-25T13:50:38;95375.84;;;-2.68;56.04
74921;BME280;63483;47.384;8.860;2023-01-25T13:55:50;95375.69;;;-2.33;54.49
74921;BME280;63483;47.384;8.860;2023-01-25T13:58:17;95388.78;;;-2.21;54.22
74921;BME280;63483;47.384;8.860;2023-01-25T14:01:12;95381.00;;;-2.04;53.78
74921;BME280;63483;47.384;8.860;2023-01-25T14:03:51;95377.03;;;-2.10;54.18
74921;BME280;63483;47.384;8.860;2023-01-25T14:06:20;95377.66;;;-2.06;54.13
74921;BME280;63483;47.384;8.860;2023-01-25T14:08:47;95376.66;;;-1.87;53.34
74921;BME280;63483;47.384;8.860;2023-01-25T14:11:19;95372.50;;;-1.74;53.47
74921;BME280;63483;47.384;8.860;2023-01-25T14:14:02;95360.31;;;-1.40;52.59
74921;BME280;63483;47.384;8.860;2023-01-25T14:16:29;95359.59;;;-1.88;53.59
74921;BME280;63483;47.384;8.860;2023-01-25T14:19:08;95357.28;;;-1.63;52.89
74921;BME280;63483;47.384;8.860;2023-01-25T14:21:42;95359.00;;;-1.47;52.55
74921;BME280;63483;47.384;8.860;2023-01-25T14:24:08;95358.91;;;-1.46;52.51
74921;BME280;63483;47.384;8.860;2023-01-25T14:26:37;95367.06;;;-1.39;52.30
74921;BME280;63483;47.384;8.860;2023-01-25T14:29:15;95353.13;;;-1.35;51.82
74921;BME280;63483;47.384;8.860;2023-01-25T14:31:42;95355.88;;;-1.38;52.21
74921;BME280;63483;47.384;8.860;2023-01-25T14:34:16;95355.72;;;-1.35;51.96
74921;BME280;63483;47.384;8.860;2023-01-25T14:36:42;95346.25;;;-1.49;52.08
74921;BME280;63483;47.384;8.860;2023-01-25T14:39:26;95348.78;;;-1.94;53.39
74921;BME280;63483;47.384;8.860;2023-01-25T14:41:52;95345.72;;;-1.70;53.17
74921;BME280;63483;47.384;8.860;2023-01-25T14:44:18;95344.88;;;-2.01;54.08
74921;BME280;63483;47.384;8.860;2023-01-25T14:46:44;95349.06;;;-1.84;53.74
74921;BME280;63483;47.384;8.860;2023-01-25T14:49:23;95340.25;;;-1.64;53.25
74921;BME280;63483;47.384;8.860;2023-01-25T14:52:06;95340.97;;;-1.62;52.79
74921;BME280;63483;47.384;8.860;2023-01-25T14:54:35;95341.16;;;-1.65;53.22
74921;BME280;63483;47.384;8.860;2023-01-25T14:57:03;95340.47;;;-1.83;52.92